Time;durP1;ratioP1;P1;durP2;ratioP2;P2;SDS_P1;SDS_P2;PMS_P1;PMS_P2;Temp;Humidity;BMP_temperature;BMP_pressure;BME280_temperature;BME280_humidity;BME280_pressure;Samples;Min_cycle;Max_cycle;Signal;HPM_P1;HPM_P2
2023/03/10 00:02:29;;;;;;;1.60;1.10;;;6.30;99.90;;;;;;5071020;28;20940;-48
2023/03/10 00:04:57;;;;;;;1.77;1.30;;;6.30;99.90;;;;;;5071365;28;20501;-48
2023/03/10 00:07:24;;;;;;;1.90;1.30;;;6.10;99.90;;;;;;5071008;28;20901;-48
2023/03/10 00:09:51;;;;;;;1.80;1.00;;;5.80;99.90;;;;;;5071031;28;21092;-48
2023/03/10 00:12:17;;;;;;;1.20;0.90;;;5.90;99.90;;;;;;5070930;28;20895;-47
2023/03/10 00:14:44;;;;;;;1.30;1.00;;;6.00;99.90;;;;;;5071185;28;20471;-50
2023/03/10 00:17:11;;;;;;;1.77;1.13;;;5.40;99.90;;;;;;5070958;28;21036;-48
2023/03/10 00:19:38;;;;;;;1.43;1.17;;;5.80;99.90;;;;;;5071183;28;20543;-48
2023/03/10 00:22:06;;;;;;;2.30;1.40;;;5.90;99.90;;;;;;5070992;28;20473;-49
2023/03/10 00:24:34;;;;;;;2.53;2.00;;;5.90;99.90;;;;;;5070983;28;20520;-48
2023/03/10 00:27:01;;;;;;;2.03;1.83;;;5.60;99.90;;;;;;5070716;28;20538;-48
2023/03/10 00:29:28;;;;;;;2.33;2.03;;;4.90;99.90;;;;;;5070873;28;20953;-47
2023/03/10 00:31:54;;;;;;;1.67;1.57;;;4.80;99.90;;;;;;5070753;28;20567;-49
2023/03/10 00:34:21;;;;;;;1.70;1.50;;;4.90;99.90;;;;;;5071076;28;20527;-50
2023/03/10 00:36:48;;;;;;;3.27;1.20;;;5.20;99.90;;;;;;5070736;28;20554;-47
2023/03/10 00:39:16;;;;;;;1.83;1.17;;;5.50;99.90;;;;;;5069209;28;20507;-47
2023/03/10 00:41:43;;;;;;;3.80;1.67;;;5.60;99.90;;;;;;5068541;28;20527;-48
2023/03/10 00:44:11;;;;;;;3.03;1.77;;;5.60;99.90;;;;;;5069635;28;20609;-47
2023/03/10 00:46:38;;;;;;;1.70;1.10;;;5.70;99.90;;;;;;5051153;28;20511;-48
2023/03/10 00:49:05;;;;;;;2.53;1.50;;;6.00;99.90;;;;;;5055049;28;20433;-48
2023/03/10 00:51:32;;;;;;;1.33;1.13;;;6.00;99.90;;;;;;5072918;28;20891;-48
2023/03/10 00:54:00;;;;;;;2.40;1.57;;;5.90;99.90;;;;;;5072744;28;20541;-48
2023/03/10 00:56:29;;;;;;;3.67;1.53;;;5.90;99.90;;;;;;5072804;28;20521;-49
2023/03/10 00:58:58;;;;;;;2.23;1.60;;;5.90;99.90;;;;;;5072738;28;20524;-48
2023/03/10 01:01:27;;;;;;;1.80;1.23;;;5.80;99.90;;;;;;5074097;28;20868;-48
2023/03/10 01:03:56;;;;;;;1.87;1.30;;;5.70;99.90;;;;;;5074490;28;20444;-47
2023/03/10 01:06:24;;;;;;;1.13;0.93;;;5.30;99.90;;;;;;5074437;28;20872;-48
2023/03/10 01:08:51;;;;;;;1.50;1.40;;;;;;;;;;5074480;28;20483;-47
2023/03/10 01:11:20;;;;;;;2.50;1.30;;;4.30;99.90;;;;;;5073990;28;20515;-48
2023/03/10 01:13:49;;;;;;;3.47;1.43;;;4.60;99.90;;;;;;5074411;28;20479;-47
2023/03/10 01:16:16;;;;;;;1.40;1.07;;;5.00;99.90;;;;;;5074144;28;20531;-49
2023/03/10 01:18:43;;;;;;;3.33;2.00;;;5.30;99.90;;;;;;5074604;28;20550;-47
2023/03/10 01:21:16;;;;;;;1.40;1.30;;;5.50;99.90;;;;;;5074094;28;20436;-48
2023/03/10 01:23:43;;;;;;;2.60;1.67;;;5.60;99.90;;;;;;5074171;28;20966;-48
2023/03/10 01:26:09;;;;;;;2.37;1.73;;;5.50;99.90;;;;;;5073975;28;20526;-47
2023/03/10 01:28:36;;;;;;;2.37;2.10;;;5.30;99.90;;;;;;5074418;28;20531;-48
2023/03/10 01:31:06;;;;;;;4.20;2.00;;;5.50;99.90;;;;;;5073752;28;20599;-48
2023/03/10 01:33:34;;;;;;;1.60;1.33;;;5.60;99.90;;;;;;5073845;28;20532;-47
2023/03/10 01:36:01;;;;;;;1.90;1.07;;;5.70;99.90;;;;;;5073726;28;20927;-48
2023/03/10 01:38:28;;;;;;;1.60;1.30;;;5.80;99.90;;;;;;5073557;28;20766;-48
2023/03/10 01:40:55;;;;;;;4.23;2.20;;;5.80;99.90;;;;;;5073541;28;20947;-48
2023/03/10 01:43:33;;;;;;;3.57;1.83;;;5.80;99.90;;;;;;5073908;28;20871;-47
2023/03/10 01:46:39;;;;;;;3.30;2.60;;;5.00;99.90;;;;;;5073496;28;20476;-48
2023/03/10 01:49:15;;;;;;;3.90;2.00;;;5.20;99.90;;;;;;5043344;28;20884;-48
2023/03/10 01:51:47;;;;;;;2.53;2.10;;;5.40;99.90;;;;;;5072479;28;20503;-48
2023/03/10 01:54:18;;;;;;;2.33;1.90;;;5.50;99.90;;;;;;5073650;28;20544;-48
2023/03/10 01:56:46;;;;;;;2.07;1.10;;;5.60;99.90;;;;;;5073306;28;20547;-47
2023/03/10 01:59:13;;;;;;;2.57;2.00;;;5.60;99.90;;;;;;5073277;28;20479;-47
2023/03/10 02:01:40;;;;;;;1.93;1.50;;;5.70;99.90;;;;;;5072321;28;20475;-48
2023/03/10 02:04:16;;;;;;;3.00;1.20;;;5.60;99.90;;;;;;5072666;28;20532;-47
2023/03/10 02:06:43;;;;;;;2.00;1.50;;;4.60;99.90;;;;;;5072741;28;20827;-47
2023/03/10 02:09:11;;;;;;;1.83;1.20;;;4.60;99.90;;;;;;5073017;28;20876;-48
2023/03/10 02:11:38;;;;;;;3.33;1.67;;;4.80;99.90;;;;;;5072787;28;20508;-47
2023/03/10 02:14:06;;;;;;;2.93;1.57;;;5.00;99.90;;;;;;5073145;28;20816;-47
2023/03/10 02:16:34;;;;;;;1.97;1.80;;;5.10;99.90;;;;;;5072934;28;20547;-48
2023/03/10 02:19:02;;;;;;;2.90;2.00;;;5.20;99.90;;;;;;5072196;28;20522;-48
2023/03/10 02:21:42;;;;;;;2.83;2.10;;;5.30;99.90;;;;;;5073032;28;20476;-47
2023/03/10 02:24:18;;;;;;;1.97;1.77;;;5.20;99.90;;;;;;5073080;28;20443;-48
2023/03/10 02:26:51;;;;;;;1.67;1.47;;;4.60;99.90;;;;;;5072723;28;20916;-50
2023/03/10 02:29:25;;;;;;;1.47;1.37;;;4.80;99.90;;;;;;5072173;28;20982;-47
2023/03/10 02:31:53;;;;;;;3.70;1.37;;;4.90;99.90;;;;;;5071985;28;20563;-47
2023/03/10 02:34:20;;;;;;;15.77;9.97;;;4.90;99.90;;;;;;5071882;28;20479;-47
2023/03/10 02:36:47;;;;;;;2.83;2.10;;;4.90;99.90;;;;;;5072150;28;20547;-47
2023/03/10 02:39:14;;;;;;;3.53;1.90;;;4.60;99.90;;;;;;5072326;28;20484;-48
2023/03/10 02:41:42;;;;;;;2.37;2.17;;;3.40;99.90;;;;;;5071772;28;20528;-47
2023/03/10 02:44:12;;;;;;;3.03;1.97;;;3.40;99.90;;;;;;5072348;28;20550;-47
2023/03/10 02:46:40;;;;;;;2.83;2.10;;;3.30;99.90;;;;;;5071777;28;20550;-48
2023/03/10 02:49:09;;;;;;;5.20;2.33;;;3.30;99.90;;;;;;5071391;28;21004;-47
2023/03/10 02:51:40;;;;;;;2.50;2.20;;;3.40;99.90;;;;;;5071955;28;20562;-47
2023/03/10 02:54:08;;;;;;;3.13;1.57;;;3.90;99.90;;;;;;5072005;28;21004;-48
2023/03/10 02:56:35;;;;;;;4.70;1.70;;;4.00;99.90;;;;;;5072441;28;20541;-47
2023/03/10 02:59:04;;;;;;;1.83;1.40;;;4.50;99.90;;;;;;5072087;28;20467;-48
2023/03/10 03:01:30;;;;;;;1.83;1.53;;;4.70;99.90;;;;;;5071448;28;20512;-48
2023/03/10 03:03:59;;;;;;;3.77;2.73;;;4.60;99.90;;;;;;5072123;28;20480;-48
2023/03/10 03:06:27;;;;;;;2.20;2.00;;;4.70;99.90;;;;;;5071747;28;20538;-47
2023/03/10 03:08:54;;;;;;;2.00;1.80;;;4.90;99.90;;;;;;5071737;28;21052;-47
2023/03/10 03:11:21;;;;;;;2.03;1.70;;;4.90;99.90;;;;;;5070664;28;20507;-50
2023/03/10 03:13:48;;;;;;;3.23;1.97;;;5.00;99.90;;;;;;5071342;28;20526;-47
2023/03/10 03:16:15;;;;;;;2.00;1.80;;;5.20;99.90;;;;;;5071701;28;20716;-47
2023/03/10 03:18:42;;;;;;;1.57;1.43;;;4.90;99.90;;;;;;5071289;28;20476;-47
2023/03/10 03:21:14;;;;;;;5.60;2.53;;;4.20;99.90;;;;;;5071173;28;20874;-48
2023/03/10 03:23:42;;;;;;;4.03;2.30;;;4.50;99.90;;;;;;5071856;28;20701;-48
2023/03/10 03:26:15;;;;;;;2.47;2.27;;;4.70;99.90;;;;;;5071334;28;20818;-47
2023/03/10 03:28:43;;;;;;;2.90;1.80;;;4.50;99.90;;;;;;5071828;28;20603;-50
2023/03/10 03:31:14;;;;;;;2.40;2.10;;;4.50;99.90;;;;;;5070590;28;20476;-49
2023/03/10 03:33:41;;;;;;;1.47;1.37;;;3.80;99.90;;;;;;5054929;28;20470;-47
2023/03/10 03:36:10;;;;;;;1.90;1.77;;;4.40;99.90;;;;;;5071569;28;21030;-47
2023/03/10 03:38:36;;;;;;;1.47;1.37;;;4.40;99.90;;;;;;5071275;28;20530;-49
2023/03/10 03:41:04;;;;;;;1.50;1.40;;;4.10;99.90;;;;;;5071135;28;20463;-50
2023/03/10 03:43:31;;;;;;;3.30;1.70;;;4.50;99.90;;;;;;5071376;28;20471;-47
2023/03/10 03:45:58;;;;;;;2.33;2.00;;;4.60;99.90;;;;;;5071371;28;20826;-49
2023/03/10 03:48:25;;;;;;;2.93;2.00;;;4.70;99.90;;;;;;5070125;28;20499;-47
2023/03/10 03:50:52;;;;;;;2.57;1.90;;;4.60;99.90;;;;;;5071302;28;20526;-47
2023/03/10 03:53:20;;;;;;;2.50;2.30;;;4.60;99.90;;;;;;5071452;28;20536;-47
2023/03/10 03:55:49;;;;;;;2.40;2.03;;;4.60;99.90;;;;;;5070822;28;20486;-47
2023/03/10 03:58:16;;;;;;;3.23;2.33;;;4.60;99.90;;;;;;5070869;28;20907;-47
2023/03/10 04:00:42;;;;;;;2.70;2.20;;;4.70;99.90;;;;;;5071129;28;20493;-48
2023/03/10 04:03:09;;;;;;;2.77;2.47;;;4.90;99.90;;;;;;5071389;28;20480;-48
2023/03/10 04:05:36;;;;;;;3.40;2.33;;;4.90;99.90;;;;;;5071052;28;20523;-48
2023/03/10 04:08:04;;;;;;;4.37;3.63;;;4.90;99.90;;;;;;5070964;28;21004;-47
2023/03/10 04:10:32;;;;;;;3.40;2.10;;;4.00;99.90;;;;;;5070761;28;20498;-47
2023/03/10 04:12:59;;;;;;;2.17;1.63;;;4.20;99.90;;;;;;5070837;28;20510;-47
2023/03/10 04:15:26;;;;;;;2.50;1.60;;;4.50;99.90;;;;;;5071134;28;20530;-49
2023/03/10 04:17:53;;;;;;;2.00;1.80;;;4.70;99.90;;;;;;5071025;28;20492;-48
2023/03/10 04:20:20;;;;;;;1.70;1.60;;;4.80;99.90;;;;;;5070512;28;20611;-47
2023/03/10 04:22:47;;;;;;;3.30;2.93;;;4.80;99.90;;;;;;5071572;28;20523;-48
2023/03/10 04:25:14;;;;;;;3.30;1.80;;;4.60;99.90;;;;;;5077594;28;20535;-47
2023/03/10 04:27:42;;;;;;;3.07;2.50;;;4.20;99.90;;;;;;5077709;28;20754;-49
2023/03/10 04:30:11;;;;;;;2.13;1.93;;;3.90;99.90;;;;;;5077551;28;20530;-45
2023/03/10 04:32:38;;;;;;;15.60;2.60;;;4.10;99.90;;;;;;5077178;28;20514;-48
2023/03/10 04:35:07;;;;;;;3.60;2.37;;;4.10;99.90;;;;;;5078016;28;20443;-47
2023/03/10 04:37:34;;;;;;;2.70;1.60;;;4.30;99.90;;;;;;5075337;28;20473;-47
2023/03/10 04:40:02;;;;;;;2.50;2.20;;;4.00;99.90;;;;;;5077598;28;20494;-47
2023/03/10 04:42:29;;;;;;;6.60;2.67;;;4.30;99.90;;;;;;5077437;28;20472;-47
2023/03/10 04:44:57;;;;;;;4.03;2.27;;;4.20;99.90;;;;;;5077682;28;20525;-48
2023/03/10 04:47:24;;;;;;;2.57;2.13;;;3.00;99.90;;;;;;5076612;28;20495;-46
2023/03/10 04:49:51;;;;;;;3.13;2.83;;;2.90;99.90;;;;;;5076854;28;20489;-45
2023/03/10 04:52:18;;;;;;;4.20;2.70;;;2.90;99.90;;;;;;5075776;28;20475;-48
2023/03/10 04:54:45;;;;;;;3.90;2.00;;;2.60;99.90;;;;;;5057279;28;21027;-48
2023/03/10 04:57:12;;;;;;;2.47;2.20;;;2.90;99.90;;;;;;5064884;28;20887;-48
2023/03/10 04:59:39;;;;;;;3.67;2.37;;;3.10;99.90;;;;;;5077082;28;20892;-47
2023/03/10 05:02:07;;;;;;;3.30;3.00;;;3.40;99.90;;;;;;5077118;28;20546;-49
2023/03/10 05:04:34;;;;;;;2.70;2.10;;;3.40;99.90;;;;;;5076182;28;20485;-48
2023/03/10 05:07:01;;;;;;;2.77;2.23;;;3.40;99.90;;;;;;5077115;28;20544;-48
2023/03/10 05:09:28;;;;;;;2.70;2.10;;;3.60;99.90;;;;;;5076611;28;20480;-49
2023/03/10 05:11:55;;;;;;;3.17;2.40;;;3.50;99.90;;;;;;5076773;28;20517;-47
2023/03/10 05:14:21;;;;;;;2.47;2.10;;;3.80;99.90;;;;;;5076437;28;20477;-48
2023/03/10 05:16:48;;;;;;;2.60;2.40;;;3.80;99.90;;;;;;5076588;28;20553;-47
2023/03/10 05:19:17;;;;;;;2.60;2.40;;;4.20;99.90;;;;;;5077498;28;20885;-47
2023/03/10 05:21:44;;;;;;;3.90;3.37;;;4.20;99.90;;;;;;5077247;28;20537;-47
2023/03/10 05:24:11;;;;;;;3.73;3.20;;;4.30;99.90;;;;;;5076245;28;20538;-48
2023/03/10 05:26:38;;;;;;;5.53;4.27;;;4.40;99.90;;;;;;5074577;28;20501;-47
2023/03/10 05:29:05;;;;;;;7.37;5.50;;;4.20;99.90;;;;;;5074584;28;20474;-48
2023/03/10 05:31:32;;;;;;;5.13;4.63;;;4.30;99.90;;;;;;5075283;28;20529;-48
2023/03/10 05:33:59;;;;;;;3.63;2.93;;;4.10;99.90;;;;;;5075505;28;20459;-47
2023/03/10 05:36:27;;;;;;;3.47;3.17;;;4.10;99.90;;;;;;5070609;28;20468;-48
2023/03/10 05:38:54;;;;;;;4.40;3.43;;;4.30;99.90;;;;;;5072789;28;20475;-47
2023/03/10 05:41:21;;;;;;;3.43;3.13;;;4.30;99.90;;;;;;5072457;28;20526;-47
2023/03/10 05:43:48;;;;;;;6.67;5.10;;;4.40;99.90;;;;;;5071729;28;20441;-49
2023/03/10 05:46:15;;;;;;;6.43;5.83;;;4.50;99.90;;;;;;5071561;28;20532;-48
2023/03/10 05:48:42;;;;;;;5.17;4.70;;;4.50;99.90;;;;;;5071461;28;20881;-47
2023/03/10 05:51:11;;;;;;;6.53;5.10;;;3.70;99.90;;;;;;5069686;28;20483;-49
2023/03/10 05:53:40;;;;;;;4.77;4.07;;;4.00;99.90;;;;;;5071620;28;20550;-47
2023/03/10 05:56:09;;;;;;;4.87;4.00;;;4.30;99.90;;;;;;5072245;28;20441;-47
2023/03/10 05:58:36;;;;;;;6.40;5.80;;;4.50;99.90;;;;;;5071876;28;20966;-48
2023/03/10 06:01:03;;;;;;;3.33;2.37;;;4.50;99.90;;;;;;5070636;28;20447;-47
2023/03/10 06:03:30;;;;;;;3.07;2.20;;;4.40;99.90;;;;;;5071693;28;20527;-47
2023/03/10 06:05:57;;;;;;;2.80;2.30;;;4.60;99.90;;;;;;5071899;28;20527;-48
2023/03/10 06:08:26;;;;;;;4.43;2.90;;;4.70;99.90;;;;;;5062390;28;20464;-48
2023/03/10 06:10:55;;;;;;;4.50;2.30;;;4.70;99.90;;;;;;5071018;28;20445;-49
2023/03/10 06:13:21;;;;;;;4.67;2.90;;;4.60;99.90;;;;;;5064552;28;20477;-49
2023/03/10 06:15:50;;;;;;;3.53;3.20;;;4.70;99.90;;;;;;5070720;28;20884;-49
2023/03/10 06:18:17;;;;;;;5.53;4.87;;;4.70;99.90;;;;;;5071920;28;20458;-48
2023/03/10 06:20:44;;;;;;;5.73;5.20;;;4.70;99.90;;;;;;5064733;28;20494;-47
2023/03/10 06:23:11;;;;;;;7.47;6.30;;;4.70;99.90;;;;;;5067893;28;20519;-47
2023/03/10 06:25:38;;;;;;;9.87;7.10;;;4.10;99.90;;;;;;5067001;28;20469;-48
2023/03/10 06:28:06;;;;;;;6.57;5.60;;;3.90;99.90;;;;;;5071252;28;20547;-48
2023/03/10 06:30:33;;;;;;;6.37;5.73;;;3.90;99.90;;;;;;5071070;28;20538;-48
2023/03/10 06:33:01;;;;;;;11.67;5.60;;;3.50;99.90;;;;;;5071363;28;20523;-48
2023/03/10 06:35:29;;;;;;;9.33;7.73;;;3.50;99.90;;;;;;5071454;28;20486;-50
2023/03/10 06:37:55;;;;;;;5.80;5.30;;;3.30;99.90;;;;;;5070925;28;20500;-47
2023/03/10 06:40:23;;;;;;;5.50;4.17;;;3.30;99.90;;;;;;5071252;28;20523;-49
2023/03/10 06:42:49;;;;;;;6.00;5.17;;;3.50;99.90;;;;;;5071451;28;20465;-48
2023/03/10 06:45:18;;;;;;;8.30;6.87;;;3.40;99.90;;;;;;5071429;28;20477;-47
2023/03/10 06:47:45;;;;;;;6.53;5.80;;;3.60;99.90;;;;;;5070124;28;20542;-49
2023/03/10 06:50:12;;;;;;;10.77;5.00;;;3.70;99.90;;;;;;5065555;28;20472;-47
2023/03/10 06:52:41;;;;;;;4.43;3.50;;;4.10;99.90;;;;;;5070443;28;20567;-47
2023/03/10 06:55:09;;;;;;;5.70;4.80;;;4.00;99.90;;;;;;5070942;28;20532;-48
2023/03/10 06:57:36;;;;;;;6.53;4.87;;;4.30;99.90;;;;;;5070517;28;20475;-49
2023/03/10 07:00:10;;;;;;;5.83;4.57;;;4.50;99.90;;;;;;5069744;28;20476;-47
2023/03/10 07:02:38;;;;;;;9.60;4.47;;;4.40;99.90;;;;;;5070486;28;20446;-47
2023/03/10 07:05:06;;;;;;;4.20;3.80;;;3.60;99.90;;;;;;5071033;28;20480;-48
2023/03/10 07:07:33;;;;;;;8.70;5.07;;;3.70;99.90;;;;;;5070442;28;20505;-47
2023/03/10 07:09:59;;;;;;;7.27;5.50;;;4.00;99.90;;;;;;5070952;28;20526;-47
2023/03/10 07:12:26;;;;;;;5.03;4.20;;;4.30;99.90;;;;;;5070167;28;20471;-50
2023/03/10 07:14:53;;;;;;;5.87;4.50;;;4.50;99.90;;;;;;5069301;28;20439;-47
2023/03/10 07:17:20;;;;;;;6.00;4.40;;;4.80;99.90;;;;;;5070537;28;20490;-49
2023/03/10 07:19:48;;;;;;;6.73;5.00;;;4.90;99.90;;;;;;5070296;28;20900;-48
2023/03/10 07:22:15;;;;;;;5.73;4.70;;;4.80;99.90;;;;;;5070395;28;20522;-47
2023/03/10 07:24:42;;;;;;;6.47;4.53;;;4.30;99.90;;;;;;5070416;28;20522;-48
2023/03/10 07:27:09;;;;;;;7.80;3.90;;;4.30;99.90;;;;;;5070638;28;20547;-49
2023/03/10 07:29:36;;;;;;;8.90;5.07;;;4.70;99.90;;;;;;5070349;28;20505;-47
2023/03/10 07:32:03;;;;;;;7.13;5.00;;;4.90;99.90;;;;;;5068879;28;21042;-48
2023/03/10 07:34:30;;;;;;;6.50;4.50;;;5.00;99.90;;;;;;5070456;28;20483;-48
2023/03/10 07:36:58;;;;;;;6.27;4.23;;;5.10;99.90;;;;;;5070303;28;20488;-50
2023/03/10 07:39:25;;;;;;;8.07;6.17;;;5.10;99.90;;;;;;5067828;28;20476;-48
2023/03/10 07:41:52;;;;;;;7.63;5.77;;;5.10;99.90;;;;;;5069166;28;20484;-47
2023/03/10 07:44:19;;;;;;;8.90;6.47;;;5.10;99.90;;;;;;5070135;28;20464;-48
2023/03/10 07:46:46;;;;;;;8.70;7.50;;;5.20;99.90;;;;;;5070179;28;20554;-48
2023/03/10 07:49:13;;;;;;;9.23;4.73;;;5.20;99.90;;;;;;5070310;28;20519;-47
2023/03/10 07:51:40;;;;;;;9.97;6.43;;;4.80;99.90;;;;;;5070276;28;20515;-50
2023/03/10 07:54:08;;;;;;;13.37;6.17;;;4.50;99.90;;;;;;5069538;28;20748;-47
2023/03/10 07:56:35;;;;;;;6.83;6.13;;;4.50;99.90;;;;;;5069318;28;20539;-48
2023/03/10 07:59:02;;;;;;;8.80;7.17;;;4.90;99.90;;;;;;5069356;28;20971;-48
2023/03/10 08:01:29;;;;;;;7.50;6.30;;;5.20;99.90;;;;;;5069512;28;20532;-47
2023/03/10 08:03:56;;;;;;;9.00;6.50;;;4.90;99.90;;;;;;5070263;28;20971;-48
2023/03/10 08:06:25;;;;;;;9.37;5.73;;;4.80;99.90;;;;;;5056448;28;20953;-48
2023/03/10 08:08:53;;;;;;;7.80;7.10;;;4.60;99.90;;;;;;5069698;28;20445;-47
2023/03/10 08:11:22;;;;;;;7.43;5.33;;;4.80;99.90;;;;;;5069490;28;20483;-49
2023/03/10 08:13:49;;;;;;;8.27;5.33;;;5.10;99.90;;;;;;5070258;28;20500;-48
2023/03/10 08:16:17;;;;;;;9.57;7.33;;;5.30;99.90;;;;;;5069794;28;20539;-48
2023/03/10 08:18:44;;;;;;;6.33;5.73;;;5.10;99.90;;;;;;5069786;28;20436;-48
2023/03/10 08:21:12;;;;;;;6.60;5.87;;;5.40;99.90;;;;;;5068768;28;20477;-49
2023/03/10 08:23:38;;;;;;;4.73;4.33;;;5.00;99.90;;;;;;5049758;28;20528;-48
2023/03/10 08:26:07;;;;;;;11.43;6.70;;;4.80;99.90;;;;;;5061670;28;20492;-49
2023/03/10 08:28:37;;;;;;;7.23;6.33;;;4.90;99.90;;;;;;5069695;28;20486;-49
2023/03/10 08:31:08;;;;;;;8.97;6.17;;;5.30;99.90;;;;;;5060657;28;20846;-50
2023/03/10 08:33:35;;;;;;;8.47;5.90;;;4.70;99.90;;;;;;5069597;28;20469;-49
2023/03/10 08:36:07;;;;;;;6.83;6.00;;;5.00;99.90;;;;;;5069150;28;20931;-48
2023/03/10 08:38:34;;;;;;;7.30;5.60;;;4.90;99.90;;;;;;5067752;28;20552;-48
2023/03/10 08:41:09;;;;;;;5.50;4.50;;;5.20;99.90;;;;;;5052718;28;20476;-47
2023/03/10 08:43:38;;;;;;;8.03;4.53;;;5.10;99.90;;;;;;5065570;28;20958;-48
2023/03/10 08:46:06;;;;;;;5.70;4.00;;;5.40;99.90;;;;;;5068270;28;20539;-49
2023/03/10 08:48:33;;;;;;;7.97;4.10;;;5.50;99.90;;;;;;5068676;28;20537;-48
2023/03/10 08:51:00;;;;;;;5.03;4.10;;;5.30;99.90;;;;;;5069013;28;20560;-48
2023/03/10 08:53:27;;;;;;;5.00;3.60;;;5.10;99.90;;;;;;5068079;28;20486;-49
2023/03/10 08:55:54;;;;;;;6.20;4.53;;;5.30;99.90;;;;;;5069946;28;20440;-48
2023/03/10 08:58:22;;;;;;;5.60;4.53;;;5.30;99.90;;;;;;5069482;28;20484;-48
2023/03/10 09:00:50;;;;;;;5.17;4.77;;;5.30;99.90;;;;;;5065780;28;20799;-48
2023/03/10 09:03:17;;;;;;;3.80;3.40;;;5.50;99.90;;;;;;5065140;28;20537;-48
2023/03/10 09:05:44;;;;;;;11.53;7.97;;;5.70;99.90;;;;;;5069272;28;20528;-48
2023/03/10 09:08:12;;;;;;;4.87;4.40;;;5.70;99.90;;;;;;5069421;28;20492;-50
2023/03/10 09:10:40;;;;;;;10.70;9.60;;;5.50;99.90;;;;;;5069379;28;20444;-48
2023/03/10 09:13:07;;;;;;;8.83;6.83;;;5.60;99.90;;;;;;5067158;28;20476;-47
2023/03/10 09:15:39;;;;;;;4.27;3.20;;;5.90;99.90;;;;;;5073083;28;20472;-50
2023/03/10 09:18:08;;;;;;;5.17;3.13;;;6.10;99.90;;;;;;5072029;28;20504;-48
2023/03/10 09:20:35;;;;;;;3.80;3.07;;;6.20;99.90;;;;;;5072938;28;20448;-49
2023/03/10 09:23:02;;;;;;;3.97;3.57;;;6.30;99.90;;;;;;5073240;28;20959;-50
2023/03/10 09:25:29;;;;;;;6.10;4.50;;;6.40;99.90;;;;;;5072710;28;20437;-48
2023/03/10 09:27:56;;;;;;;7.83;4.70;;;6.30;99.90;;;;;;5072014;28;20536;-51
2023/03/10 09:30:24;;;;;;;6.30;4.80;;;6.40;99.90;;;;;;5071582;28;20538;-47
2023/03/10 09:32:50;;;;;;;10.63;7.63;;;6.40;99.90;;;;;;5059084;28;20592;-48
2023/03/10 09:35:19;;;;;;;7.37;6.10;;;6.60;99.90;;;;;;5069022;28;20519;-47
2023/03/10 09:37:46;;;;;;;9.97;6.60;;;6.70;99.90;;;;;;5070082;28;20500;-49
2023/03/10 09:40:17;;;;;;;5.43;3.40;;;6.80;99.90;;;;;;5064413;28;20531;-49
2023/03/10 09:42:45;;;;;;;3.67;2.80;;;6.90;99.90;;;;;;5072391;28;20834;-48
2023/03/10 09:45:24;;;;;;;3.50;2.97;;;6.90;99.90;;;;;;5072333;28;20516;-48
2023/03/10 09:48:18;;;;;;;5.80;3.60;;;7.10;99.90;;;;;;5070628;28;21008;-48
2023/03/10 09:50:48;;;;;;;4.10;2.80;;;7.20;99.90;;;;;;5064441;28;20448;-49
2023/03/10 09:53:52;;;;;;;4.03;2.97;;;7.30;99.90;;;;;;5071272;28;20468;-48
2023/03/10 09:56:23;;;;;;;4.27;3.27;;;7.70;99.90;;;;;;5071217;28;20963;-48
2023/03/10 09:58:54;;;;;;;7.20;3.43;;;7.70;99.90;;;;;;5063881;28;20517;-49
2023/03/10 10:01:24;;;;;;;4.60;3.40;;;7.60;99.90;;;;;;5069214;28;20472;-48
2023/03/10 10:03:54;;;;;;;3.80;3.50;;;7.50;99.90;;;;;;5071983;28;20537;-48
2023/03/10 10:06:25;;;;;;;2.97;2.67;;;7.50;99.90;;;;;;5071085;28;20475;-47
2023/03/10 10:08:57;;;;;;;5.63;3.50;;;7.50;99.90;;;;;;5071240;28;20476;-49
2023/03/10 10:11:25;;;;;;;6.00;3.50;;;7.70;99.90;;;;;;5070914;28;20535;-48
2023/03/10 10:14:09;;;;;;;6.83;3.23;;;8.10;99.90;;;;;;5071228;28;20501;-48
2023/03/10 10:16:42;;;;;;;3.70;2.80;;;8.40;99.90;;;;;;5070104;28;20536;-48
2023/03/10 10:19:15;;;;;;;4.20;3.07;;;8.60;99.90;;;;;;5072298;28;20547;-49
2023/03/10 10:21:51;;;;;;;4.80;3.63;;;8.60;99.90;;;;;;5070084;28;20532;-49
2023/03/10 10:24:19;;;;;;;4.37;3.90;;;8.50;99.90;;;;;;5072130;28;20527;-50
2023/03/10 10:26:46;;;;;;;4.10;3.23;;;8.80;99.90;;;;;;5071962;28;20496;-48
2023/03/10 10:29:15;;;;;;;5.40;3.30;;;9.10;99.90;;;;;;5071974;28;20939;-51
2023/03/10 10:31:43;;;;;;;4.20;2.93;;;9.40;99.90;;;;;;5071775;28;20449;-48
2023/03/10 10:34:20;;;;;;;4.63;3.10;;;9.60;99.90;;;;;;5071579;28;20576;-49
2023/03/10 10:36:51;;;;;;;4.50;3.63;;;9.80;99.90;;;;;;5071354;28;20551;-48
2023/03/10 10:39:25;;;;;;;4.40;3.33;;;9.80;99.90;;;;;;5071789;28;20868;-48
2023/03/10 10:41:52;;;;;;;3.30;2.90;;;9.70;99.90;;;;;;5071584;28;20534;-50
2023/03/10 10:44:20;;;;;;;3.87;2.93;;;9.70;99.90;;;;;;5072011;28;20458;-47
2023/03/10 10:46:52;;;;;;;4.60;2.93;;;9.90;99.90;;;;;;5071716;28;20548;-48
2023/03/10 10:49:23;;;;;;;4.20;3.13;;;10.00;99.90;;;;;;5071043;28;20499;-49
2023/03/10 10:51:59;;;;;;;4.40;3.50;;;10.00;99.90;;;;;;5071372;28;20441;-50
2023/03/10 10:54:28;;;;;;;5.20;3.97;;;10.10;99.90;;;;;;5071522;28;20521;-49
2023/03/10 10:56:57;;;;;;;7.27;3.40;;;10.20;99.90;;;;;;5071065;28;20494;-48
2023/03/10 10:59:28;;;;;;;4.80;2.80;;;10.00;99.90;;;;;;5069888;28;20497;-46
2023/03/10 11:01:58;;;;;;;3.60;2.73;;;10.10;99.90;;;;;;5067666;28;20543;-50
2023/03/10 11:04:27;;;;;;;3.47;3.10;;;10.20;99.90;;;;;;5070744;28;21037;-48
2023/03/10 11:07:11;;;;;;;5.00;3.70;;;10.10;99.90;;;;;;5070511;28;20537;-49
2023/03/10 11:09:38;;;;;;;4.30;3.40;;;10.20;99.90;;;;;;5070367;28;20437;-48
2023/03/10 11:12:12;;;;;;;4.80;3.90;;;10.40;99.90;;;;;;5068988;28;20448;-48
2023/03/10 11:14:51;;;;;;;7.07;3.57;;;10.60;99.90;;;;;;5070868;28;20479;-48
2023/03/10 11:17:24;;;;;;;3.57;3.10;;;10.70;99.90;;;;;;5064441;28;20509;-48
2023/03/10 11:20:08;;;;;;;5.37;3.70;;;10.50;99.90;;;;;;5052717;28;20491;-48
2023/03/10 11:22:45;;;;;;;5.10;4.10;;;10.60;99.90;;;;;;5049973;28;20500;-50
2023/03/10 11:25:23;;;;;;;5.43;4.37;;;10.70;99.90;;;;;;5060587;28;20441;-50
2023/03/10 11:28:02;;;;;;;8.20;4.73;;;10.70;99.90;;;;;;5070660;28;20505;-51
2023/03/10 11:30:32;;;;;;;5.07;4.57;;;10.60;99.90;;;;;;5069887;28;20477;-51
2023/03/10 11:33:12;;;;;;;4.10;3.70;;;10.70;99.90;;;;;;5068692;28;20537;-50
2023/03/10 11:35:44;;;;;;;5.23;4.07;;;10.90;99.90;;;;;;5069426;28;20978;-48
2023/03/10 11:38:20;;;;;;;5.60;3.97;;;11.20;99.90;;;;;;5067480;28;20468;-52
2023/03/10 11:40:52;;;;;;;4.80;3.67;;;11.30;99.90;;;;;;5064300;28;20479;-49
2023/03/10 11:43:28;;;;;;;5.17;4.27;;;11.10;99.90;;;;;;5067097;28;20438;-48
2023/03/10 11:45:58;;;;;;;4.87;3.47;;;11.20;99.90;;;;;;5069519;28;20533;-51
2023/03/10 11:48:36;;;;;;;5.13;3.83;;;11.10;99.90;;;;;;5062563;28;20493;-50
2023/03/10 11:51:05;;;;;;;4.97;3.73;;;11.10;99.90;;;;;;5065284;28;20468;-48
2023/03/10 11:53:39;;;;;;;4.40;3.60;;;11.10;99.90;;;;;;5070572;28;20527;-50
2023/03/10 11:56:09;;;;;;;5.40;4.10;;;10.90;99.90;;;;;;5070296;28;20533;-48
2023/03/10 11:58:45;;;;;;;5.97;4.30;;;10.90;99.90;;;;;;5069687;28;20474;-49
2023/03/10 12:01:15;;;;;;;5.27;3.93;;;11.10;99.90;;;;;;5070421;28;20508;-49
2023/03/10 12:03:48;;;;;;;5.43;4.07;;;11.50;99.90;;;;;;5070057;28;20497;-50
2023/03/10 12:06:20;;;;;;;7.27;4.20;;;11.50;99.90;;;;;;5070269;28;20473;-49
2023/03/10 12:08:51;;;;;;;5.20;4.70;;;11.50;99.90;;;;;;5069207;28;21041;-50
2023/03/10 12:11:21;;;;;;;7.90;4.20;;;11.30;99.90;;;;;;5060722;28;20474;-48
2023/03/10 12:13:51;;;;;;;4.63;3.80;;;11.30;99.90;;;;;;5064572;28;21055;-51
2023/03/10 12:16:22;;;;;;;5.73;4.03;;;11.30;99.90;;;;;;5068312;28;20484;-48
2023/03/10 12:18:49;;;;;;;5.40;3.83;;;11.30;99.90;;;;;;5057970;28;20981;-47
2023/03/10 12:21:20;;;;;;;5.77;4.40;;;11.30;99.90;;;;;;5070404;28;20479;-49
2023/03/10 12:23:49;;;;;;;3.87;3.03;;;11.30;99.90;;;;;;5070218;28;20962;-48
2023/03/10 12:26:55;;;;;;;5.10;3.30;;;11.30;99.90;;;;;;5070216;28;20521;-47
2023/03/10 12:29:30;;;;;;;5.00;3.30;;;11.50;99.90;;;;;;5069600;28;20488;-48
2023/03/10 12:31:57;;;;;;;4.10;3.17;;;11.90;99.90;;;;;;5070203;28;20451;-50
2023/03/10 12:34:26;;;;;;;4.00;3.47;;;11.80;99.90;;;;;;5071319;28;20521;-48
2023/03/10 12:36:55;;;;;;;5.90;3.20;;;11.70;99.90;;;;;;5067262;28;20473;-48
2023/03/10 12:39:37;;;;;;;4.00;3.13;;;11.50;99.90;;;;;;5059290;28;20533;-49
2023/03/10 12:42:25;;;;;;;3.40;3.00;;;11.30;99.90;;;;;;5069513;28;20442;-48
2023/03/10 12:44:56;;;;;;;4.33;3.67;;;11.40;99.90;;;;;;5053401;28;20532;-48
2023/03/10 12:47:30;;;;;;;5.97;3.70;;;11.70;99.90;;;;;;5068054;28;21091;-49
2023/03/10 12:50:05;;;;;;;3.80;3.20;;;11.70;99.90;;;;;;5072752;28;20539;-50
2023/03/10 12:52:46;;;;;;;4.77;3.50;;;11.70;99.90;;;;;;5073494;28;20524;-48
2023/03/10 12:55:21;;;;;;;5.87;3.40;;;11.80;99.90;;;;;;5073360;28;20481;-50
2023/03/10 12:58:15;;;;;;;4.77;3.10;;;11.80;99.90;;;;;;5071759;28;20466;-48
2023/03/10 13:00:53;;;;;;;4.30;3.07;;;11.80;99.90;;;;;;5072885;28;20519;-48
2023/03/10 13:03:29;;;;;;;4.20;3.17;;;11.80;99.90;;;;;;5073148;28;20479;-47
2023/03/10 13:06:02;;;;;;;5.40;3.70;;;11.80;99.90;;;;;;5072558;28;20440;-50
2023/03/10 13:08:52;;;;;;;3.33;3.00;;;11.70;99.90;;;;;;5072321;28;20462;-50